createdAt,value
2023-05-13T00:00:50.922Z,276
2023-05-13T00:03:05.549Z,276
2023-05-13T00:05:21.818Z,277
2023-05-13T00:07:47.884Z,276
2023-05-13T00:10:02.955Z,277
2023-05-13T00:12:14.397Z,276
2023-05-13T00:14:26.476Z,279
2023-05-13T00:16:38.684Z,274
2023-05-13T00:18:57.205Z,273
2023-05-13T00:21:08.374Z,276
2023-05-13T00:23:22.666Z,273
2023-05-13T00:25:37.654Z,272
2023-05-13T00:27:51.099Z,272
2023-05-13T00:30:02.040Z,270
2023-05-13T00:32:13.959Z,276
2023-05-13T00:34:40.711Z,277
2023-05-13T00:36:52.576Z,277
2023-05-13T00:39:15.999Z,277
2023-05-13T00:41:30.398Z,277
2023-05-13T00:43:40.942Z,278
2023-05-13T00:45:52.108Z,279
2023-05-13T00:48:03.676Z,277
2023-05-13T00:50:24.783Z,279
2023-05-13T00:52:37.995Z,277
2023-05-13T00:55:07.819Z,278
2023-05-13T00:57:20.079Z,279
2023-05-13T00:59:32.009Z,276
2023-05-13T01:01:45.857Z,274
2023-05-13T01:04:11.589Z,276
2023-05-13T01:06:24.213Z,276
2023-05-13T01:08:36.305Z,274
2023-05-13T01:10:50.216Z,272
2023-05-13T01:13:21.313Z,270
2023-05-13T01:15:46.014Z,268
2023-05-13T01:17:58.047Z,270
2023-05-13T01:20:09.573Z,272
2023-05-13T01:22:23.771Z,272
2023-05-13T01:24:49.475Z,271
2023-05-13T01:27:04.554Z,272
2023-05-13T01:29:19.914Z,271
2023-05-13T01:31:33.341Z,273
2023-05-13T01:33:45.130Z,273
2023-05-13T01:35:58.632Z,273
2023-05-13T01:38:10.991Z,273
2023-05-13T01:40:42.173Z,272
2023-05-13T01:42:56.036Z,272
2023-05-13T01:45:09.371Z,272
2023-05-13T01:47:47.498Z,268
2023-05-13T01:50:02.470Z,267
2023-05-13T01:52:16.380Z,266
2023-05-13T01:54:27.954Z,267
2023-05-13T01:56:41.911Z,268
2023-05-13T01:58:53.187Z,269
2023-05-13T02:01:11.840Z,266
2023-05-13T02:03:28.599Z,268
2023-05-13T02:05:42.795Z,268
2023-05-13T02:07:54.840Z,272
2023-05-13T02:10:08.195Z,270
2023-05-13T02:12:25.288Z,270
2023-05-13T02:14:38.213Z,269
2023-05-13T02:16:51.364Z,270
2023-05-13T02:19:05.212Z,270
2023-05-13T02:21:22.960Z,270
2023-05-13T02:23:49.529Z,273
2023-05-13T02:26:01.037Z,272
2023-05-13T02:28:12.638Z,272
2023-05-13T02:30:28.096Z,270
2023-05-13T02:32:42.416Z,266
2023-05-13T02:34:54.895Z,267
2023-05-13T02:37:26.477Z,268
2023-05-13T02:39:38.120Z,272
2023-05-13T02:41:49.957Z,270
2023-05-13T02:44:02.654Z,269
2023-05-13T02:46:19.317Z,265
2023-05-13T02:48:35.274Z,266
2023-05-13T02:50:47.952Z,267
2023-05-13T02:53:04.415Z,267
2023-05-13T02:55:17.086Z,267
2023-05-13T02:57:30.055Z,265
2023-05-13T02:59:43.214Z,267
2023-05-13T03:01:59.701Z,267
2023-05-13T03:04:13.834Z,267
2023-05-13T03:06:40.502Z,266
2023-05-13T03:08:55.625Z,265
2023-05-13T03:11:17.118Z,267
2023-05-13T03:13:29.599Z,268
2023-05-13T03:15:44.861Z,272
2023-05-13T03:17:58.038Z,271
2023-05-13T03:20:10.790Z,273
2023-05-13T03:22:27.598Z,272
2023-05-13T03:24:38.902Z,274
2023-05-13T03:26:56.234Z,273
2023-05-13T03:29:10.334Z,273
2023-05-13T03:31:39.665Z,272
2023-05-13T03:33:57.059Z,273
2023-05-13T03:36:09.714Z,271
2023-05-13T03:38:25.110Z,273
2023-05-13T03:40:38.150Z,272
2023-05-13T03:42:52.891Z,272
2023-05-13T03:45:04.394Z,272
2023-05-13T03:47:16.075Z,272
2023-05-13T03:49:30.655Z,272
2023-05-13T03:51:43.392Z,272
2023-05-13T03:53:56.982Z,271
2023-05-13T03:56:11.134Z,273
2023-05-13T03:58:24.783Z,273
2023-05-13T04:00:39.242Z,268
2023-05-13T04:02:54.229Z,267
2023-05-13T04:05:05.479Z,272
2023-05-13T04:07:16.655Z,270
2023-05-13T04:09:29.764Z,269
2023-05-13T04:11:41.398Z,265
2023-05-13T04:13:52.322Z,268
2023-05-13T04:16:05.060Z,270
2023-05-13T04:18:19.237Z,270
2023-05-13T04:20:31.418Z,273
2023-05-13T04:22:46.537Z,272
2023-05-13T04:25:00.457Z,273
2023-05-13T04:27:13.332Z,274
2023-05-13T04:29:25.935Z,273
2023-05-13T04:31:40.138Z,274
2023-05-13T04:34:05.037Z,274
2023-05-13T04:36:24.057Z,272
2023-05-13T04:38:36.098Z,270
2023-05-13T04:40:48.613Z,270
2023-05-13T04:43:00.574Z,270
2023-05-13T04:45:16.097Z,269
2023-05-13T04:47:30.561Z,272
2023-05-13T04:49:43.434Z,272
2023-05-13T04:51:58.314Z,272
2023-05-13T04:54:12.875Z,268
2023-05-13T04:56:25.196Z,268
2023-05-13T04:58:36.754Z,270
2023-05-13T05:00:53.253Z,270
2023-05-13T05:03:07.801Z,272
2023-05-13T05:05:33.236Z,268
2023-05-13T05:07:45.372Z,270
2023-05-13T05:09:59.035Z,268
2023-05-13T05:12:14.794Z,268
2023-05-13T05:14:28.237Z,267
2023-05-13T05:16:47.788Z,268
2023-05-13T05:19:04.624Z,271
2023-05-13T05:21:20.636Z,268
2023-05-13T05:23:34.879Z,268
2023-05-13T05:25:48.562Z,270
2023-05-13T05:28:19.361Z,270
2023-05-13T05:30:34.418Z,268
2023-05-13T05:32:45.668Z,272
2023-05-13T05:34:58.501Z,270
2023-05-13T05:37:12.394Z,266
2023-05-13T05:39:29.016Z,268
2023-05-13T05:41:42.859Z,266
2023-05-13T05:43:56.837Z,266
2023-05-13T05:46:09.948Z,266
2023-05-13T05:48:27.637Z,266
2023-05-13T05:50:45.183Z,267
2023-05-13T05:52:57.035Z,267
2023-05-13T05:55:08.473Z,265
2023-05-13T05:57:20.056Z,270
2023-05-13T05:59:47.195Z,271
2023-05-13T06:02:00.374Z,270
2023-05-13T06:04:14.061Z,269
2023-05-13T06:06:30.864Z,270
2023-05-13T06:08:51.601Z,267
2023-05-13T06:11:05.016Z,270
2023-05-13T06:13:21.123Z,272
2023-05-13T06:15:33.816Z,272
2023-05-13T06:17:44.678Z,273
2023-05-13T06:19:56.997Z,273
2023-05-13T06:22:12.521Z,272
2023-05-13T06:24:33.334Z,273
2023-05-13T06:26:50.277Z,273
2023-05-13T06:29:04.798Z,273
2023-05-13T06:31:18.473Z,273
2023-05-13T06:33:37.662Z,273
2023-05-13T06:35:52.817Z,272
2023-05-13T06:38:05.914Z,270
2023-05-13T06:40:17.759Z,268
2023-05-13T06:42:38.358Z,268
2023-05-13T06:44:52.699Z,268
2023-05-13T06:47:06.450Z,268
2023-05-13T06:49:19.034Z,268
2023-05-13T06:51:32.600Z,267
2023-05-13T06:53:44.971Z,268
2023-05-13T06:55:57.735Z,268
2023-05-13T06:58:10.357Z,272
2023-05-13T07:00:27.936Z,269
2023-05-13T07:02:40.566Z,272
2023-05-13T07:04:56.952Z,273
2023-05-13T07:07:12.047Z,272
2023-05-13T07:09:27.091Z,274
2023-05-13T07:11:40.836Z,274
2023-05-13T07:13:53.389Z,273
2023-05-13T07:16:06.570Z,272
2023-05-13T07:18:22.493Z,273
2023-05-13T07:20:36.928Z,273
2023-05-13T07:22:48.769Z,273
2023-05-13T07:25:45.493Z,272
2023-05-13T07:28:09.114Z,273
2023-05-13T07:30:39.610Z,273
2023-05-13T07:33:01.964Z,273
2023-05-13T07:35:16.569Z,273
2023-05-13T07:37:28.350Z,273
2023-05-13T07:39:40.151Z,272
2023-05-13T07:41:56.539Z,273
2023-05-13T07:44:08.970Z,274
2023-05-13T07:46:21.391Z,273
2023-05-13T07:48:38.541Z,272
2023-05-13T07:50:52.423Z,272
2023-05-13T07:53:03.329Z,273
2023-05-13T07:55:17.876Z,272
2023-05-13T07:57:31.019Z,273
2023-05-13T07:59:48.035Z,272
2023-05-13T08:02:04.198Z,272
2023-05-13T08:04:18.892Z,272
2023-05-13T08:06:35.555Z,270
2023-05-13T08:08:52.209Z,273
2023-05-13T08:11:10.935Z,270
2023-05-13T08:13:25.190Z,273
2023-05-13T08:15:39.792Z,272
2023-05-13T08:17:51.394Z,273
2023-05-13T08:20:06.611Z,270
2023-05-13T08:22:26.951Z,272
2023-05-13T08:24:38.912Z,271
2023-05-13T08:26:50.701Z,267
2023-05-13T08:29:04.444Z,270
2023-05-13T08:31:14.345Z,270
2023-05-13T08:33:27.451Z,273
2023-05-13T08:35:44.869Z,273
2023-05-13T08:37:56.731Z,276
2023-05-13T08:40:10.751Z,274
2023-05-13T08:42:24.416Z,274
2023-05-13T08:44:35.892Z,274
2023-05-13T08:46:51.912Z,274
2023-05-13T08:49:06.586Z,273
2023-05-13T08:51:21.072Z,274
2023-05-13T08:53:37.238Z,273
2023-05-13T08:55:50.991Z,274
2023-05-13T08:58:03.817Z,274
2023-05-13T09:00:15.617Z,273
2023-05-13T09:02:32.192Z,276
2023-05-13T09:04:49.722Z,274
2023-05-13T09:07:05.999Z,276
2023-05-13T09:09:17.611Z,276
2023-05-13T09:11:31.340Z,276
2023-05-13T09:13:45.976Z,276
2023-05-13T09:16:00.545Z,272
2023-05-13T09:18:15.809Z,273
2023-05-13T09:20:29.853Z,272
2023-05-13T09:22:44.357Z,272
2023-05-13T09:24:59.235Z,270
2023-05-13T09:27:11.522Z,273
2023-05-13T09:29:23.071Z,272
2023-05-13T09:31:43.393Z,274
2023-05-13T09:33:53.311Z,274
2023-05-13T09:36:06.861Z,268
2023-05-13T09:38:22.218Z,267
2023-05-13T09:40:35.371Z,272
2023-05-13T09:42:50.491Z,274
2023-05-13T09:45:06.751Z,274
2023-05-13T09:47:25.447Z,274
2023-05-13T09:49:39.732Z,274
2023-05-13T09:51:53.005Z,276
2023-05-13T09:54:09.971Z,276
2023-05-13T09:56:26.074Z,276
2023-05-13T09:58:43.335Z,276
2023-05-13T10:00:58.667Z,276
2023-05-13T10:03:12.137Z,274
2023-05-13T10:05:24.355Z,276
2023-05-13T10:07:36.569Z,274
2023-05-13T10:10:00.212Z,276
2023-05-13T10:12:14.896Z,276
2023-05-13T10:14:31.416Z,276
2023-05-13T10:16:46.337Z,273
2023-05-13T10:19:00.622Z,273
2023-05-13T10:21:12.177Z,272
2023-05-13T10:23:25.986Z,272
2023-05-13T10:25:37.833Z,273
2023-05-13T10:27:49.858Z,274
2023-05-13T10:30:07.634Z,273
2023-05-13T10:32:22.951Z,273
2023-05-13T10:34:35.769Z,274
2023-05-13T10:36:48.030Z,272
2023-05-13T10:39:04.638Z,273
2023-05-13T10:41:26.095Z,274
2023-05-13T10:43:49.350Z,274
2023-05-13T10:46:03.368Z,274
2023-05-13T10:48:20.293Z,274
2023-05-13T10:50:37.064Z,274
2023-05-13T10:52:52.044Z,273
2023-05-13T10:55:04.202Z,274
2023-05-13T10:57:17.207Z,274
2023-05-13T10:59:35.750Z,274
2023-05-13T11:01:51.005Z,276
2023-05-13T11:04:06.600Z,274
2023-05-13T11:06:20.116Z,274
2023-05-13T11:08:36.473Z,276
2023-05-13T11:10:51.754Z,274
2023-05-13T11:13:02.629Z,276
2023-05-13T11:15:14.298Z,276
2023-05-13T11:17:24.918Z,274
2023-05-13T11:19:39.434Z,276
2023-05-13T11:21:58.769Z,276
2023-05-13T11:24:15.355Z,276
2023-05-13T11:26:34.619Z,276
2023-05-13T11:28:48.681Z,276
2023-05-13T11:31:02.906Z,276
2023-05-13T11:33:17.456Z,274
2023-05-13T11:35:33.210Z,276
2023-05-13T11:37:50.072Z,276
2023-05-13T11:40:03.274Z,274
2023-05-13T11:42:17.573Z,276
2023-05-13T11:44:30.613Z,276
2023-05-13T11:46:43.711Z,276
2023-05-13T11:48:59.700Z,277
2023-05-13T11:51:25.713Z,277
2023-05-13T11:53:41.252Z,273
2023-05-13T11:55:56.714Z,272
2023-05-13T11:58:08.729Z,272
2023-05-13T12:00:20.472Z,276
2023-05-13T12:02:37.928Z,274
2023-05-13T12:04:52.728Z,273
2023-05-13T12:07:05.675Z,277
2023-05-13T12:09:17.812Z,277
2023-05-13T12:11:30.590Z,278
2023-05-13T12:13:42.719Z,277
2023-05-13T12:15:55.243Z,274
2023-05-13T12:18:07.828Z,274
2023-05-13T12:20:19.668Z,274
2023-05-13T12:22:31.011Z,273
2023-05-13T12:24:44.998Z,272
2023-05-13T12:26:58.658Z,268
2023-05-13T12:29:14.179Z,255
2023-05-13T12:31:28.127Z,256
2023-05-13T12:33:40.973Z,240
2023-05-13T12:35:58.772Z,257
2023-05-13T12:38:12.676Z,249
2023-05-13T12:40:25.541Z,234
2023-05-13T12:42:40.875Z,242
2023-05-13T12:44:54.337Z,235
2023-05-13T12:47:06.912Z,228
2023-05-13T12:49:21.273Z,259
2023-05-13T12:51:39.693Z,266
2023-05-13T12:54:11.475Z,267
2023-05-13T12:56:26.892Z,266
2023-05-13T12:58:38.930Z,259
2023-05-13T13:00:51.227Z,264
2023-05-13T13:03:03.418Z,258
2023-05-13T13:05:17.960Z,259
2023-05-13T13:07:39.317Z,261
2023-05-13T13:09:54.152Z,261
2023-05-13T13:12:08.616Z,262
2023-05-13T13:14:22.934Z,257
2023-05-13T13:16:37.288Z,256
2023-05-13T13:18:55.659Z,247
2023-05-13T13:21:15.252Z,261
2023-05-13T13:23:29.189Z,257
2023-05-13T13:25:45.287Z,256
2023-05-13T13:27:58.523Z,252
2023-05-13T13:30:11.615Z,261
2023-05-13T13:32:26.972Z,261
2023-05-13T13:34:41.795Z,255
2023-05-13T13:36:54.952Z,264
2023-05-13T13:39:18.320Z,256
2023-05-13T13:41:32.579Z,252
2023-05-13T13:43:46.396Z,255
2023-05-13T13:46:04.212Z,247
2023-05-13T13:48:18.357Z,253
2023-05-13T13:50:35.858Z,262
2023-05-13T13:52:54.218Z,257
2023-05-13T13:55:14.634Z,256
2023-05-13T13:57:31.038Z,259
2023-05-13T13:59:47.114Z,262
2023-05-13T14:02:04.033Z,262
2023-05-13T14:04:19.511Z,261
2023-05-13T14:06:33.447Z,261
2023-05-13T14:08:46.195Z,261
2023-05-13T14:10:57.469Z,265
2023-05-13T14:13:12.476Z,262
2023-05-13T14:15:24.756Z,265
2023-05-13T14:17:38.624Z,265
2023-05-13T14:19:50.335Z,262
2023-05-13T14:22:04.873Z,264
2023-05-13T14:24:18.437Z,268
2023-05-13T14:26:31.521Z,268
2023-05-13T14:28:43.518Z,265
2023-05-13T14:30:55.480Z,267
2023-05-13T14:33:10.716Z,267
2023-05-13T14:35:25.089Z,255
2023-05-13T14:37:37.576Z,234
2023-05-13T14:39:53.578Z,259
2023-05-13T14:42:08.736Z,257
2023-05-13T14:44:23.961Z,266
2023-05-13T14:46:41.880Z,255
2023-05-13T14:48:59.240Z,246
2023-05-13T14:51:13.382Z,249
2023-05-13T14:53:29.817Z,258
2023-05-13T14:55:51.201Z,261
2023-05-13T14:58:06.973Z,225
2023-05-13T15:00:20.547Z,259
2023-05-13T15:02:34.419Z,246
2023-05-13T15:04:46.347Z,242
2023-05-13T15:07:05.679Z,234
2023-05-13T15:09:20.433Z,226
2023-05-13T15:11:37.076Z,234
2023-05-13T15:13:56.272Z,243
2023-05-13T15:16:12.289Z,218
2023-05-13T15:18:28.944Z,252
2023-05-13T15:20:45.359Z,256
2023-05-13T15:22:58.851Z,254
2023-05-13T15:25:13.473Z,256
2023-05-13T15:27:28.212Z,256
2023-05-13T15:29:43.812Z,252
2023-05-13T15:32:03.216Z,232
2023-05-13T15:34:18.405Z,267
2023-05-13T15:36:32.816Z,242
2023-05-13T15:38:47.131Z,253
2023-05-13T15:41:00.323Z,237
2023-05-13T15:43:15.658Z,247
2023-05-13T15:45:29.275Z,259
2023-05-13T15:47:46.509Z,228
2023-05-13T15:50:05.155Z,235
2023-05-13T15:52:21.695Z,235
2023-05-13T15:54:42.181Z,229
2023-05-13T15:56:55.155Z,237
2023-05-13T15:59:14.176Z,243
2023-05-13T16:01:28.742Z,240
2023-05-13T16:03:43.907Z,248
2023-05-13T16:05:56.995Z,247
2023-05-13T16:08:12.498Z,249
2023-05-13T16:10:25.674Z,247
2023-05-13T16:12:39.854Z,240
2023-05-13T16:14:54.750Z,243
2023-05-13T16:17:08.078Z,249
2023-05-13T16:19:21.373Z,247
2023-05-13T16:21:32.972Z,240
2023-05-13T16:23:45.888Z,237
2023-05-13T16:26:00.271Z,237
2023-05-13T16:28:16.459Z,238
2023-05-13T16:30:30.603Z,247
2023-05-13T16:32:44.850Z,240
2023-05-13T16:34:58.495Z,235
2023-05-13T16:37:12.236Z,238
2023-05-13T16:39:26.397Z,238
2023-05-13T16:41:41.269Z,243
2023-05-13T16:43:54.211Z,234
2023-05-13T16:46:05.414Z,235
2023-05-13T16:48:17.238Z,237
2023-05-13T16:50:31.573Z,237
2023-05-13T16:52:45.012Z,235
2023-05-13T16:55:00.893Z,237
2023-05-13T16:57:15.470Z,237
2023-05-13T16:59:28.469Z,236
2023-05-13T17:01:41.368Z,229
2023-05-13T17:03:54.052Z,226
2023-05-13T17:06:10.048Z,237
2023-05-13T17:08:26.416Z,234
2023-05-13T17:10:40.155Z,229
2023-05-13T17:13:00.904Z,247
2023-05-13T17:15:17.034Z,243
2023-05-13T17:17:33.004Z,244
2023-05-13T17:19:50.236Z,245
2023-05-13T17:22:01.646Z,225
2023-05-13T17:24:16.969Z,233
2023-05-13T17:26:31.798Z,237
2023-05-13T17:28:48.595Z,244
2023-05-13T17:31:04.036Z,240
2023-05-13T17:33:22.774Z,237
2023-05-13T17:35:37.416Z,240
2023-05-13T17:37:49.832Z,240
2023-05-13T17:40:03.721Z,242
2023-05-13T17:42:17.315Z,244
2023-05-13T17:44:29.279Z,247
2023-05-13T17:46:42.555Z,246
2023-05-13T17:48:54.713Z,240
2023-05-13T17:51:05.837Z,244
2023-05-13T17:53:19.337Z,247
2023-05-13T17:55:30.718Z,240
2023-05-13T17:57:43.017Z,244
2023-05-13T17:59:59.130Z,244
2023-05-13T18:02:12.681Z,243
2023-05-13T18:04:24.630Z,242
2023-05-13T18:06:37.115Z,243
2023-05-13T18:08:48.629Z,242
2023-05-13T18:11:00.792Z,238
2023-05-13T18:13:16.194Z,241
2023-05-13T18:15:29.852Z,257
2023-05-13T18:17:45.011Z,257
2023-05-13T18:19:58.316Z,253
2023-05-13T18:22:09.641Z,258
2023-05-13T18:24:22.497Z,244
2023-05-13T18:26:34.373Z,240
2023-05-13T18:28:46.594Z,237
2023-05-13T18:30:57.932Z,243
2023-05-13T18:33:10.901Z,243
2023-05-13T18:35:23.472Z,243
2023-05-13T18:37:35.518Z,244
2023-05-13T18:39:48.512Z,248
2023-05-13T18:42:01.291Z,253
2023-05-13T18:44:14.234Z,247
2023-05-13T18:46:28.206Z,244
2023-05-13T18:48:41.479Z,273
2023-05-13T18:50:58.613Z,276
2023-05-13T18:53:12.472Z,274
2023-05-13T18:55:25.638Z,274
2023-05-13T18:57:38.997Z,277
2023-05-13T18:59:52.539Z,276
2023-05-13T19:02:07.088Z,276
2023-05-13T19:04:21.031Z,274
2023-05-13T19:06:35.415Z,266
2023-05-13T19:08:49.918Z,271
2023-05-13T19:11:03.452Z,273
2023-05-13T19:13:14.850Z,272
2023-05-13T19:15:31.232Z,274
2023-05-13T19:17:47.653Z,273
2023-05-13T19:20:01.551Z,274
2023-05-13T19:22:14.074Z,274
2023-05-13T19:24:26.826Z,270
2023-05-13T19:26:58.136Z,274
2023-05-13T19:29:13.383Z,272
2023-05-13T19:31:27.631Z,273
2023-05-13T19:33:44.051Z,273
2023-05-13T19:35:59.904Z,270
2023-05-13T19:38:12.514Z,268
2023-05-13T19:40:33.999Z,268
2023-05-13T19:42:46.713Z,266
2023-05-13T19:44:57.419Z,268
2023-05-13T19:47:09.794Z,268
2023-05-13T19:49:22.212Z,270
2023-05-13T19:51:37.916Z,270
2023-05-13T19:53:53.695Z,258
2023-05-13T19:56:06.874Z,248
2023-05-13T19:58:20.714Z,257
2023-05-13T20:00:33.932Z,268
2023-05-13T20:02:46.338Z,272
2023-05-13T20:04:57.931Z,266
2023-05-13T20:07:12.413Z,271
2023-05-13T20:09:24.772Z,268
2023-05-13T20:11:36.264Z,267
2023-05-13T20:13:48.357Z,265
2023-05-13T20:16:02.862Z,268
2023-05-13T20:18:16.006Z,267
2023-05-13T20:20:28.379Z,267
2023-05-13T20:22:41.234Z,267
2023-05-13T20:24:53.574Z,265
2023-05-13T20:27:05.895Z,267
2023-05-13T20:29:17.252Z,268
2023-05-13T20:31:27.995Z,259
2023-05-13T20:33:39.840Z,257
2023-05-13T20:35:55.934Z,259
2023-05-13T20:38:11.193Z,266
2023-05-13T20:40:25.179Z,259
2023-05-13T20:42:40.259Z,268
2023-05-13T20:44:53.058Z,261
2023-05-13T20:47:06.687Z,256
2023-05-13T20:49:19.577Z,265
2023-05-13T20:51:37.523Z,252
2023-05-13T20:53:51.783Z,264
2023-05-13T20:56:08.399Z,267
2023-05-13T20:58:19.935Z,255
2023-05-13T21:00:32.402Z,255
2023-05-13T21:02:48.606Z,257
2023-05-13T21:05:01.137Z,249
2023-05-13T21:07:12.838Z,265
2023-05-13T21:09:23.921Z,262
2023-05-13T21:11:36.966Z,266
2023-05-13T21:13:49.020Z,256
2023-05-13T21:16:01.805Z,255
2023-05-13T21:18:14.461Z,259
2023-05-13T21:20:26.522Z,265
2023-05-13T21:22:39.975Z,261
2023-05-13T21:24:50.746Z,255
2023-05-13T21:27:02.970Z,262
2023-05-13T21:29:18.932Z,262
2023-05-13T21:31:33.368Z,261
2023-05-13T21:33:45.432Z,254
2023-05-13T21:36:10.232Z,262
2023-05-13T21:38:22.196Z,265
2023-05-13T21:40:34.474Z,266
2023-05-13T21:42:48.173Z,264
2023-05-13T21:44:59.411Z,261
2023-05-13T21:47:11.931Z,262
2023-05-13T21:49:26.110Z,266
2023-05-13T21:51:38.096Z,265
2023-05-13T21:53:51.052Z,268
2023-05-13T21:56:04.374Z,266
2023-05-13T21:58:15.430Z,266
2023-05-13T22:00:28.528Z,264
2023-05-13T22:02:41.422Z,271
2023-05-13T22:04:52.767Z,259
2023-05-13T22:07:05.075Z,266
2023-05-13T22:09:20.191Z,266
2023-05-13T22:11:33.352Z,264
2023-05-13T22:13:47.394Z,261
2023-05-13T22:15:58.728Z,266
2023-05-13T22:18:11.417Z,264
2023-05-13T22:20:24.064Z,265
2023-05-13T22:22:35.355Z,262
2023-05-13T22:24:48.052Z,269
2023-05-13T22:27:00.352Z,262
2023-05-13T22:29:12.734Z,264
2023-05-13T22:31:26.729Z,264
2023-05-13T22:33:37.770Z,266
2023-05-13T22:35:48.829Z,267
2023-05-13T22:37:59.673Z,259
2023-05-13T22:40:11.635Z,265
2023-05-13T22:42:30.360Z,264
2023-05-13T22:44:41.527Z,267
2023-05-13T22:46:53.687Z,267
2023-05-13T22:49:06.700Z,268
2023-05-13T22:51:18.139Z,268
2023-05-13T22:53:28.779Z,268
2023-05-13T22:55:40.183Z,268
2023-05-13T22:57:52.049Z,268
2023-05-13T23:00:03.658Z,267
2023-05-13T23:02:15.359Z,267
2023-05-13T23:04:27.281Z,268
2023-05-13T23:06:42.843Z,267
2023-05-13T23:08:54.837Z,262
2023-05-13T23:11:10.393Z,264
2023-05-13T23:13:23.736Z,266
2023-05-13T23:15:35.553Z,266
2023-05-13T23:17:47.349Z,262
2023-05-13T23:20:00.181Z,262
2023-05-13T23:22:11.731Z,264
2023-05-13T23:24:24.448Z,262
2023-05-13T23:26:37.197Z,264
2023-05-13T23:28:52.170Z,262
2023-05-13T23:31:05.135Z,261
2023-05-13T23:33:18.116Z,262
2023-05-13T23:35:29.414Z,261
2023-05-13T23:37:42.749Z,261
2023-05-13T23:39:56.254Z,262
2023-05-13T23:42:09.451Z,262
2023-05-13T23:44:20.910Z,262
2023-05-13T23:46:32.214Z,262
2023-05-13T23:48:43.877Z,266
2023-05-13T23:50:55.893Z,266
2023-05-13T23:53:09.204Z,265
2023-05-13T23:55:22.331Z,266
2023-05-13T23:57:34.136Z,266
2023-05-13T23:59:45.049Z,266
